Portada
METAR-TAF:

METAR-TAF

Aeropuertos :

Salamanca, España

Aeropuerto de Salamanca

latitud: 40-57N, longitud: 005-30W, altitud: 793 m

Observación

El informe se hizo hace 8 horas y 54 minutos, a las 18:00 UTC
Viento 10 kt del este-noreste
Temperatura 8°C
Humedad 66%
Presión 1025 hPa
Visibilidad 10 km o más
Escasas nubes a una altura de 3000 ft

METAR: LESA 171800Z 07010KT 9999 FEW030 08/02 Q1025

Hora: 03:54 (02:54 UTC)

Pronóstico

El informe se hizo hace 3 horas y 54 minutos, a las 23:00 UTC
Pronóstico válido del 18 a las 00 UTC al 18 a las 24 UTC
Viento 8 kt del este-noreste
Visibilidad 10 km o más
sin nubes por debajo de 1500 m y sin presencia de cumulonimbus.
Evolucionando progresivamente
del 18 a las 15 UTC al 18 a las 17 UTC
Nubes dispersas a una altura de 3000 ft

TAF: LESA 172300Z 1800/1824 07008KT CAVOK TX11/1815Z TN03/1807Z BECMG 1815/1817 SCT030

Observaciones y pronósticos meteorológicos de más de 4000 aeropuertos (mensajes METAR y TAF).

Los puntos amarillos y rojos representan las estaciones disponibles.

Ponga el ratón en el punto deseado para ver el nombre de la estación.

Haga clic para ver las observaciones y los pronósticos meteorológicos.

Para cambiar el mapa : haga clic en los botones verdes con una cruz de color negro para hacer un zoom, en el botón verde con un guión para alejar o en las flechas verdes para mapas adyacentes.


METAR-TAF: